createdAt,value
2022-11-26T00:02:18.623Z,12.63
2022-11-26T00:04:47.020Z,13.47
2022-11-26T00:07:19.210Z,12.03
2022-11-26T00:09:47.384Z,12.47
2022-11-26T00:12:19.503Z,11.27
2022-11-26T00:14:48.313Z,13.30
2022-11-26T00:17:17.100Z,14.73
2022-11-26T00:19:46.186Z,12.67
2022-11-26T00:22:24.618Z,14.37
2022-11-26T00:24:53.971Z,13.37
2022-11-26T00:27:23.553Z,14.30
2022-11-26T00:29:51.754Z,11.73
2022-11-26T00:32:21.958Z,14.50
2022-11-26T00:34:50.194Z,13.30
2022-11-26T00:37:23.495Z,12.70
2022-11-26T00:39:52.690Z,13.03
2022-11-26T00:42:21.230Z,13.23
2022-11-26T00:44:49.472Z,13.67
2022-11-26T00:47:17.614Z,11.97
2022-11-26T00:49:45.808Z,13.90
2022-11-26T00:52:28.197Z,12.57
2022-11-26T00:54:56.457Z,12.40
2022-11-26T00:57:24.683Z,14.27
2022-11-26T00:59:52.875Z,12.77
2022-11-26T01:02:21.190Z,10.80
2022-11-26T01:04:49.381Z,12.90
2022-11-26T01:07:17.715Z,12.47
2022-11-26T01:09:48.529Z,10.50
2022-11-26T01:12:16.708Z,11.57
2022-11-26T01:14:45.072Z,10.73
2022-11-26T01:17:13.758Z,10.23
2022-11-26T01:19:41.949Z,11.40
2022-11-26T01:22:20.162Z,8.67
2022-11-26T01:24:50.197Z,12.50
2022-11-26T01:27:20.455Z,11.43
2022-11-26T01:29:49.002Z,10.00
2022-11-26T01:32:17.148Z,10.67
2022-11-26T01:34:45.311Z,10.73
2022-11-26T01:37:14.857Z,12.23
2022-11-26T01:39:43.271Z,10.03
2022-11-26T01:42:25.746Z,10.87
2022-11-26T01:44:53.982Z,11.30
2022-11-26T01:47:24.483Z,12.70
2022-11-26T01:50:30.116Z,10.50
2022-11-26T01:53:02.085Z,10.40
2022-11-26T01:55:37.516Z,10.10
2022-11-26T01:58:11.296Z,11.93
2022-11-26T02:00:39.767Z,9.23
2022-11-26T02:03:09.024Z,10.57
2022-11-26T02:05:44.382Z,9.87
2022-11-26T02:08:14.202Z,12.83
2022-11-26T02:10:42.628Z,11.00
2022-11-26T02:13:12.526Z,13.70
2022-11-26T02:15:50.378Z,10.53
2022-11-26T02:18:18.878Z,12.07
2022-11-26T02:20:56.265Z,11.47
2022-11-26T02:24:01.735Z,12.77
2022-11-26T02:27:22.470Z,11.83
2022-11-26T02:30:07.848Z,13.20
2022-11-26T02:32:46.463Z,12.77
2022-11-26T02:35:21.224Z,12.83
2022-11-26T02:37:53.766Z,13.77
2022-11-26T02:40:22.597Z,12.87
2022-11-26T02:42:50.820Z,13.60
2022-11-26T02:45:24.742Z,14.47
2022-11-26T02:47:56.073Z,13.90
2022-11-26T02:50:27.814Z,13.37
2022-11-26T02:52:58.504Z,13.10
2022-11-26T02:55:31.351Z,13.77
2022-11-26T02:58:00.158Z,14.10
2022-11-26T03:00:29.934Z,13.83
2022-11-26T03:03:03.546Z,15.80
2022-11-26T03:05:36.009Z,15.53
2022-11-26T03:08:06.274Z,15.80
2022-11-26T03:10:34.610Z,15.20
2022-11-26T03:13:02.819Z,13.77
2022-11-26T03:15:32.606Z,14.17
2022-11-26T03:18:00.794Z,13.67
2022-11-26T03:20:29.011Z,15.67
2022-11-26T03:22:57.261Z,13.97
2022-11-26T03:25:25.573Z,12.90
2022-11-26T03:27:53.719Z,16.37
2022-11-26T03:30:22.070Z,13.40
2022-11-26T03:32:51.599Z,14.83
2022-11-26T03:35:20.359Z,15.13
2022-11-26T03:37:48.600Z,14.03
2022-11-26T03:40:17.761Z,12.73
2022-11-26T03:42:46.215Z,13.77
2022-11-26T03:45:14.699Z,16.97
2022-11-26T03:47:42.864Z,12.40
2022-11-26T03:50:13.118Z,13.73
2022-11-26T03:52:41.334Z,12.37
2022-11-26T03:55:10.473Z,12.13
2022-11-26T03:57:38.679Z,11.03
2022-11-26T04:00:09.291Z,12.20
2022-11-26T04:02:38.036Z,15.87
2022-11-26T04:05:07.185Z,13.87
2022-11-26T04:07:36.823Z,14.13
2022-11-26T04:10:05.732Z,13.23
2022-11-26T04:12:33.893Z,11.97
2022-11-26T04:15:02.117Z,13.13
2022-11-26T04:17:30.295Z,12.20
2022-11-26T04:19:58.443Z,10.97
2022-11-26T04:22:26.628Z,10.27
2022-11-26T04:24:56.249Z,11.77
2022-11-26T04:27:24.378Z,11.70
2022-11-26T04:29:52.569Z,9.70
2022-11-26T04:32:20.733Z,11.07
2022-11-26T04:34:48.883Z,10.47
2022-11-26T04:37:17.153Z,11.43
2022-11-26T04:39:45.377Z,10.33
2022-11-26T04:42:14.896Z,11.80
2022-11-26T04:44:43.101Z,9.47
2022-11-26T04:47:11.236Z,12.63
2022-11-26T04:49:39.409Z,10.03
2022-11-26T04:52:07.589Z,12.00
2022-11-26T04:54:36.018Z,11.97
2022-11-26T04:57:04.596Z,9.47
2022-11-26T04:59:34.125Z,10.47
2022-11-26T05:02:02.656Z,9.67
2022-11-26T05:04:31.466Z,10.37
2022-11-26T05:06:59.746Z,10.30
2022-11-26T05:09:27.905Z,9.97
2022-11-26T05:11:56.053Z,11.53
2022-11-26T05:14:24.466Z,9.43
2022-11-26T05:16:54.106Z,10.63
2022-11-26T05:19:22.299Z,8.90
2022-11-26T05:21:50.549Z,8.33
2022-11-26T05:24:19.006Z,9.40
2022-11-26T05:26:50.088Z,8.97
2022-11-26T05:29:20.646Z,9.00
2022-11-26T05:31:48.914Z,9.73
2022-11-26T05:34:18.509Z,9.77
2022-11-26T05:36:46.664Z,8.80
2022-11-26T05:39:15.823Z,10.57
2022-11-26T05:41:44.164Z,7.47
2022-11-26T05:44:12.467Z,8.93
2022-11-26T05:46:42.590Z,8.20
2022-11-26T05:49:11.291Z,8.53
2022-11-26T05:51:40.915Z,9.43
2022-11-26T05:54:10.488Z,7.20
2022-11-26T05:56:38.617Z,7.63
2022-11-26T05:59:06.825Z,8.43
2022-11-26T06:01:35.272Z,9.27
2022-11-26T06:04:03.559Z,8.43
2022-11-26T06:06:31.779Z,7.63
2022-11-26T06:09:01.381Z,6.03
2022-11-26T06:11:29.554Z,7.40
2022-11-26T06:13:57.763Z,6.73
2022-11-26T06:16:26.024Z,6.83
2022-11-26T06:18:54.234Z,7.27
2022-11-26T06:21:22.467Z,6.97
2022-11-26T06:23:56.107Z,6.93
2022-11-26T06:26:28.821Z,6.47
2022-11-26T06:28:57.113Z,7.90
2022-11-26T06:31:25.344Z,8.13
2022-11-26T06:33:55.321Z,6.73
2022-11-26T06:36:23.552Z,6.33
2022-11-26T06:38:51.801Z,8.13
2022-11-26T06:41:20.075Z,5.47
2022-11-26T06:43:49.709Z,5.43
2022-11-26T06:46:17.926Z,6.17
2022-11-26T06:48:46.156Z,6.57
2022-11-26T06:51:16.321Z,5.80
2022-11-26T06:53:44.770Z,6.57
2022-11-26T06:56:18.342Z,5.60
2022-11-26T06:58:49.022Z,7.53
2022-11-26T07:01:18.724Z,7.63
2022-11-26T07:03:47.207Z,6.73
2022-11-26T07:06:19.715Z,6.63
2022-11-26T07:08:48.502Z,6.23
2022-11-26T07:11:16.801Z,5.63
2022-11-26T07:13:45.368Z,5.67
2022-11-26T07:16:15.522Z,6.93
2022-11-26T07:18:44.145Z,6.87
2022-11-26T07:21:13.708Z,5.30
2022-11-26T07:23:42.676Z,5.53
2022-11-26T07:26:12.001Z,6.27
2022-11-26T07:28:40.454Z,4.73
2022-11-26T07:31:16.258Z,5.70
2022-11-26T07:33:46.386Z,6.47
2022-11-26T07:36:17.236Z,8.07
2022-11-26T07:38:45.486Z,5.57
2022-11-26T07:41:15.554Z,6.50
2022-11-26T07:43:44.721Z,7.47
2022-11-26T07:46:15.184Z,5.63
2022-11-26T07:48:46.704Z,6.87
2022-11-26T07:51:19.544Z,8.03
2022-11-26T07:53:48.617Z,5.73
2022-11-26T07:56:17.311Z,6.37
2022-11-26T07:58:45.557Z,9.03
2022-11-26T08:01:16.143Z,9.03
2022-11-26T08:03:47.397Z,6.77
2022-11-26T08:06:18.358Z,6.70
2022-11-26T08:08:46.819Z,10.17
2022-11-26T08:11:17.244Z,8.00
2022-11-26T08:13:46.772Z,6.97
2022-11-26T08:16:16.082Z,6.23
2022-11-26T08:18:44.502Z,6.23
2022-11-26T08:21:14.124Z,6.00
2022-11-26T08:23:44.074Z,5.43
2022-11-26T08:26:26.388Z,7.67
2022-11-26T08:29:01.551Z,5.03
2022-11-26T08:31:30.460Z,6.93
2022-11-26T08:33:59.609Z,4.33
2022-11-26T08:36:30.351Z,7.73
2022-11-26T08:38:59.207Z,9.07
2022-11-26T08:41:27.667Z,5.77
2022-11-26T08:44:11.165Z,5.30
2022-11-26T08:46:40.558Z,4.83
2022-11-26T08:49:11.212Z,7.87
2022-11-26T08:51:40.790Z,9.13
2022-11-26T08:54:09.111Z,8.40
2022-11-26T08:56:37.610Z,7.07
2022-11-26T08:59:05.843Z,8.00
2022-11-26T09:01:35.005Z,7.90
2022-11-26T09:04:04.931Z,6.40
2022-11-26T09:06:34.419Z,5.77
2022-11-26T09:09:14.607Z,7.47
2022-11-26T09:11:46.207Z,7.03
2022-11-26T09:14:15.729Z,10.23
2022-11-26T09:16:44.239Z,7.30
2022-11-26T09:19:14.460Z,9.20
2022-11-26T09:21:42.864Z,8.77
2022-11-26T09:24:12.758Z,6.47
2022-11-26T09:26:41.223Z,5.50
2022-11-26T09:29:09.613Z,6.03
2022-11-26T09:31:49.720Z,7.07
2022-11-26T09:34:26.023Z,6.10
2022-11-26T09:36:54.185Z,5.50
2022-11-26T09:39:23.736Z,7.60
2022-11-26T09:41:57.578Z,5.97
2022-11-26T09:44:38.842Z,5.70
2022-11-26T09:47:14.031Z,6.60
2022-11-26T09:49:56.589Z,5.97
2022-11-26T09:52:29.265Z,8.40
2022-11-26T09:55:06.425Z,8.03
2022-11-26T09:57:41.923Z,6.57
2022-11-26T10:00:29.222Z,5.53
2022-11-26T10:02:58.930Z,8.23
2022-11-26T10:05:40.513Z,6.47
2022-11-26T10:08:29.549Z,6.70
2022-11-26T10:11:04.139Z,5.97
2022-11-26T10:13:43.314Z,7.40
2022-11-26T10:16:21.941Z,9.03
2022-11-26T10:19:00.013Z,6.80
2022-11-26T10:21:57.667Z,8.10
2022-11-26T10:24:27.581Z,7.40
2022-11-26T10:26:58.803Z,8.00
2022-11-26T10:29:29.198Z,7.73
2022-11-26T10:32:02.969Z,11.00
2022-11-26T10:34:39.932Z,6.90
2022-11-26T10:37:08.691Z,8.30
2022-11-26T10:39:36.836Z,8.03
2022-11-26T10:42:14.610Z,10.40
2022-11-26T10:44:42.993Z,8.50
2022-11-26T10:47:35.272Z,7.63
2022-11-26T10:50:46.021Z,8.10
2022-11-26T10:53:20.538Z,10.10
2022-11-26T10:55:48.907Z,8.70
2022-11-26T10:58:21.802Z,12.80
2022-11-26T11:00:57.933Z,11.70
2022-11-26T11:04:05.612Z,10.47
2022-11-26T11:06:29.002Z,11.30
2022-11-26T11:08:57.526Z,9.40
2022-11-26T11:11:28.366Z,8.17
2022-11-26T11:13:58.821Z,11.37
2022-11-26T11:16:30.131Z,9.43
2022-11-26T11:18:59.680Z,11.63
2022-11-26T11:21:31.321Z,9.43
2022-11-26T11:24:11.093Z,7.80
2022-11-26T11:26:44.594Z,8.37
2022-11-26T11:29:33.996Z,8.07
2022-11-26T11:32:04.515Z,9.47
2022-11-26T11:34:38.388Z,8.43
2022-11-26T11:37:15.143Z,6.27
2022-11-26T11:39:44.787Z,6.87
2022-11-26T11:42:23.221Z,6.53
2022-11-26T11:44:53.393Z,5.60
2022-11-26T11:47:37.393Z,4.70
2022-11-26T11:50:20.713Z,7.33
2022-11-26T11:53:04.595Z,4.77
2022-11-26T11:56:02.426Z,5.70
2022-11-26T11:58:55.153Z,7.97
2022-11-26T12:01:35.302Z,6.67
2022-11-26T12:04:24.981Z,5.43
2022-11-26T12:07:29.923Z,6.30
2022-11-26T12:10:09.972Z,5.13
2022-11-26T12:12:42.337Z,9.63
2022-11-26T12:15:18.257Z,8.10
2022-11-26T12:17:51.875Z,5.50
2022-11-26T12:20:26.654Z,4.63
2022-11-26T12:22:59.605Z,6.53
2022-11-26T12:25:36.963Z,6.70
2022-11-26T12:28:13.591Z,9.37
2022-11-26T12:30:49.747Z,6.37
2022-11-26T12:33:26.734Z,8.47
2022-11-26T12:35:58.665Z,7.87
2022-11-26T12:38:31.163Z,5.20
2022-11-26T12:41:03.703Z,10.83
2022-11-26T12:43:46.118Z,5.93
2022-11-26T12:46:20.824Z,7.03
2022-11-26T12:48:55.914Z,7.17
2022-11-26T12:51:34.571Z,5.67
2022-11-26T12:54:15.242Z,6.80
2022-11-26T12:56:57.594Z,6.50
2022-11-26T12:59:30.795Z,8.13
2022-11-26T13:01:59.470Z,4.10
2022-11-26T13:04:37.589Z,6.33
2022-11-26T13:07:21.255Z,5.27
2022-11-26T13:10:04.712Z,12.67
2022-11-26T13:12:46.736Z,6.57
2022-11-26T13:15:23.848Z,5.40
2022-11-26T13:17:53.023Z,7.00
2022-11-26T13:20:52.694Z,5.70
2022-11-26T13:23:36.272Z,9.10
2022-11-26T13:26:22.896Z,5.03
2022-11-26T13:29:07.110Z,7.30
2022-11-26T13:31:49.265Z,5.73
2022-11-26T13:34:29.990Z,4.10
2022-11-26T13:37:26.886Z,3.70
2022-11-26T13:40:30.617Z,6.73
2022-11-26T13:43:35.905Z,7.40
2022-11-26T13:46:09.885Z,4.37
2022-11-26T13:48:45.877Z,7.93
2022-11-26T13:51:20.965Z,6.03
2022-11-26T13:53:56.415Z,7.63
2022-11-26T13:56:32.169Z,8.70
2022-11-26T13:59:05.293Z,6.60
2022-11-26T14:01:37.212Z,5.33
2022-11-26T14:04:07.877Z,7.90
2022-11-26T14:06:36.821Z,11.63
2022-11-26T14:09:07.377Z,10.17
2022-11-26T14:11:57.132Z,8.23
2022-11-26T14:14:36.734Z,7.53
2022-11-26T14:17:19.951Z,7.90
2022-11-26T14:20:18.526Z,6.30
2022-11-26T14:22:46.904Z,8.03
2022-11-26T14:25:16.661Z,8.53
2022-11-26T14:27:53.241Z,7.27
2022-11-26T14:30:26.401Z,7.63
2022-11-26T14:33:13.800Z,10.43
2022-11-26T14:35:42.796Z,6.20
2022-11-26T14:38:25.307Z,8.17
2022-11-26T14:41:02.392Z,7.87
2022-11-26T14:43:30.852Z,5.77
2022-11-26T14:46:10.940Z,10.60
2022-11-26T14:48:44.976Z,8.07
2022-11-26T14:51:22.480Z,5.57
2022-11-26T14:53:51.970Z,10.17
2022-11-26T14:56:24.539Z,6.03
2022-11-26T14:58:55.050Z,6.97
2022-11-26T15:01:25.179Z,4.33
2022-11-26T15:04:02.866Z,7.90
2022-11-26T15:06:38.382Z,10.97
2022-11-26T15:09:09.252Z,10.67
2022-11-26T15:11:41.982Z,10.67
2022-11-26T15:14:19.741Z,8.17
2022-11-26T15:16:54.417Z,9.97
2022-11-26T15:19:23.120Z,6.93
2022-11-26T15:21:52.852Z,12.97
2022-11-26T15:24:21.371Z,13.73
2022-11-26T15:26:50.979Z,6.30
2022-11-26T15:29:35.161Z,8.17
2022-11-26T15:32:04.073Z,8.73
2022-11-26T15:34:34.071Z,7.87
2022-11-26T15:37:02.395Z,9.47
2022-11-26T15:39:32.478Z,6.50
2022-11-26T15:42:05.979Z,7.60
2022-11-26T15:44:42.239Z,7.57
2022-11-26T15:47:20.119Z,10.33
2022-11-26T15:49:52.112Z,9.50
2022-11-26T15:52:23.629Z,6.97
2022-11-26T15:55:16.103Z,6.27
2022-11-26T15:57:51.210Z,8.10
2022-11-26T16:00:24.178Z,10.60
2022-11-26T16:02:52.789Z,8.90
2022-11-26T16:05:28.843Z,8.43
2022-11-26T16:07:58.965Z,10.53
2022-11-26T16:10:31.131Z,11.63
2022-11-26T16:13:23.192Z,12.43
2022-11-26T16:15:55.576Z,8.33
2022-11-26T16:18:29.530Z,10.57
2022-11-26T16:21:07.046Z,8.93
2022-11-26T16:23:37.494Z,6.63
2022-11-26T16:26:11.736Z,5.90
2022-11-26T16:28:41.897Z,6.63
2022-11-26T16:31:10.710Z,6.70
2022-11-26T16:33:50.109Z,5.73
2022-11-26T16:36:24.205Z,10.27
2022-11-26T16:38:53.180Z,6.80
2022-11-26T16:41:23.513Z,5.80
2022-11-26T16:43:53.032Z,4.40
2022-11-26T16:46:24.362Z,4.50
2022-11-26T16:48:53.469Z,6.33
2022-11-26T16:51:22.270Z,6.33
2022-11-26T16:53:50.897Z,7.53
2022-11-26T16:56:24.133Z,5.37
2022-11-26T16:58:54.233Z,7.43
2022-11-26T17:01:22.474Z,6.63
2022-11-26T17:03:50.708Z,3.93
2022-11-26T17:06:24.144Z,5.00
2022-11-26T17:08:52.834Z,4.60
2022-11-26T17:11:21.086Z,4.73
2022-11-26T17:13:49.453Z,4.83
2022-11-26T17:16:20.997Z,5.20
2022-11-26T17:18:50.043Z,4.33
2022-11-26T17:21:18.284Z,3.77
2022-11-26T17:23:46.548Z,4.40
2022-11-26T17:26:20.955Z,4.43
2022-11-26T17:28:49.450Z,3.97
2022-11-26T17:31:19.395Z,5.90
2022-11-26T17:33:47.678Z,4.47
2022-11-26T17:36:18.136Z,4.63
2022-11-26T17:38:47.090Z,5.20
2022-11-26T17:41:15.744Z,6.07
2022-11-26T17:43:44.247Z,4.93
2022-11-26T17:46:17.110Z,7.37
2022-11-26T17:48:47.358Z,5.13
2022-11-26T17:51:16.063Z,5.33
2022-11-26T17:53:45.093Z,7.90
2022-11-26T17:56:22.595Z,7.17
2022-11-26T17:58:51.292Z,8.33
2022-11-26T18:01:19.686Z,7.33
2022-11-26T18:03:49.291Z,8.00
2022-11-26T18:06:18.831Z,7.50
2022-11-26T18:08:47.327Z,7.43
2022-11-26T18:11:16.944Z,7.97
2022-11-26T18:13:45.633Z,6.83
2022-11-26T18:16:13.823Z,7.63
2022-11-26T18:18:42.044Z,6.70
2022-11-26T18:21:13.461Z,7.33
2022-11-26T18:23:47.717Z,8.83
2022-11-26T18:26:18.519Z,8.60
2022-11-26T18:28:46.749Z,6.93
2022-11-26T18:31:15.050Z,8.27
2022-11-26T18:33:43.331Z,7.00
2022-11-26T18:36:13.366Z,7.80
2022-11-26T18:38:41.725Z,7.87
2022-11-26T18:41:09.994Z,8.33
2022-11-26T18:43:39.880Z,7.97
2022-11-26T18:46:15.407Z,8.90
2022-11-26T18:48:45.126Z,9.30
2022-11-26T18:51:15.634Z,8.37
2022-11-26T18:53:44.367Z,7.50
2022-11-26T18:56:15.704Z,7.70
2022-11-26T18:58:44.270Z,8.10
2022-11-26T19:01:18.185Z,7.63
2022-11-26T19:03:46.437Z,7.30
2022-11-26T19:06:19.125Z,6.60
2022-11-26T19:08:48.078Z,6.47
2022-11-26T19:11:20.087Z,6.27
2022-11-26T19:13:49.248Z,6.17
2022-11-26T19:16:20.461Z,6.70
2022-11-26T19:18:48.958Z,6.47
2022-11-26T19:21:20.217Z,6.97
2022-11-26T19:23:49.101Z,7.50
2022-11-26T19:26:17.527Z,7.30
2022-11-26T19:28:45.729Z,7.10
2022-11-26T19:31:15.921Z,6.70
2022-11-26T19:33:46.282Z,7.20
2022-11-26T19:36:16.802Z,7.97
2022-11-26T19:38:46.988Z,6.90
2022-11-26T19:41:15.489Z,9.93
2022-11-26T19:43:44.037Z,9.30
2022-11-26T19:46:14.454Z,9.20
2022-11-26T19:48:44.167Z,10.53
2022-11-26T19:51:12.940Z,10.33
2022-11-26T19:53:41.253Z,9.60
2022-11-26T19:56:15.866Z,9.53
2022-11-26T19:58:44.121Z,10.67
2022-11-26T20:01:15.892Z,9.93
2022-11-26T20:03:44.596Z,8.80
2022-11-26T20:06:16.113Z,9.23
2022-11-26T20:08:44.652Z,10.03
2022-11-26T20:11:15.061Z,9.37
2022-11-26T20:13:44.915Z,8.50
2022-11-26T20:16:16.168Z,7.73
2022-11-26T20:18:45.203Z,8.50
2022-11-26T20:21:16.398Z,8.47
2022-11-26T20:23:44.749Z,8.73
2022-11-26T20:26:19.739Z,10.17
2022-11-26T20:28:47.903Z,11.00
2022-11-26T20:31:20.675Z,10.30
2022-11-26T20:33:52.700Z,9.60
2022-11-26T20:36:22.961Z,9.87
2022-11-26T20:38:53.484Z,12.40
2022-11-26T20:41:26.257Z,11.40
2022-11-26T20:43:58.500Z,11.70
2022-11-26T20:46:29.248Z,12.63
2022-11-26T20:48:58.115Z,12.30
2022-11-26T20:51:26.608Z,12.27
2022-11-26T20:53:58.524Z,11.53
2022-11-26T20:56:28.927Z,10.70
2022-11-26T20:58:57.211Z,9.87
2022-11-26T21:01:27.447Z,10.20
2022-11-26T21:03:56.547Z,9.93
2022-11-26T21:06:30.175Z,11.67
2022-11-26T21:09:00.893Z,10.83
2022-11-26T21:11:31.496Z,9.90
2022-11-26T21:14:01.481Z,10.67
2022-11-26T21:16:30.842Z,12.63
2022-11-26T21:18:59.786Z,12.80
2022-11-26T21:21:29.557Z,12.17
2022-11-26T21:23:58.805Z,12.47
2022-11-26T21:26:28.035Z,15.80
2022-11-26T21:28:59.224Z,14.20
2022-11-26T21:31:29.035Z,17.57
2022-11-26T21:33:58.960Z,17.43
2022-11-26T21:36:27.533Z,20.47
2022-11-26T21:38:55.936Z,19.53
2022-11-26T21:41:25.209Z,18.07
2022-11-26T21:43:53.830Z,19.17
2022-11-26T21:46:25.751Z,21.20
2022-11-26T21:48:54.327Z,22.43
2022-11-26T21:51:23.210Z,20.67
2022-11-26T21:53:51.877Z,22.70
2022-11-26T21:56:22.122Z,20.30
2022-11-26T21:58:50.895Z,22.20
2022-11-26T22:01:23.182Z,19.67
2022-11-26T22:03:53.815Z,20.80
2022-11-26T22:06:23.706Z,22.50
2022-11-26T22:08:52.313Z,24.13
2022-11-26T22:11:24.090Z,25.77
2022-11-26T22:13:52.911Z,25.43
2022-11-26T22:16:24.300Z,22.83
2022-11-26T22:18:53.515Z,23.80
2022-11-26T22:21:23.456Z,23.80
2022-11-26T22:23:52.612Z,24.17
2022-11-26T22:26:21.071Z,22.37
2022-11-26T22:28:50.131Z,22.13
2022-11-26T22:31:21.375Z,21.10
2022-11-26T22:33:51.506Z,22.40
2022-11-26T22:36:19.649Z,22.13
2022-11-26T22:38:47.898Z,22.93
2022-11-26T22:41:16.199Z,24.33
2022-11-26T22:43:44.652Z,22.63
2022-11-26T22:46:14.713Z,21.70
2022-11-26T22:48:43.353Z,22.87
2022-11-26T22:51:13.205Z,22.60
2022-11-26T22:53:41.424Z,21.87
2022-11-26T22:56:09.832Z,23.77
2022-11-26T22:58:38.033Z,22.10
2022-11-26T23:01:08.427Z,22.13
2022-11-26T23:03:38.832Z,25.03
2022-11-26T23:06:09.621Z,23.03
2022-11-26T23:08:39.750Z,22.93
2022-11-26T23:11:08.899Z,22.30
2022-11-26T23:13:37.459Z,22.73
2022-11-26T23:16:08.736Z,22.67
2022-11-26T23:18:37.531Z,23.63
2022-11-26T23:21:07.686Z,22.37
2022-11-26T23:23:37.365Z,21.60
2022-11-26T23:26:07.788Z,23.37
2022-11-26T23:28:37.099Z,19.53
2022-11-26T23:31:07.386Z,20.73
2022-11-26T23:33:36.855Z,22.10
2022-11-26T23:36:05.931Z,21.40
2022-11-26T23:38:34.197Z,20.43
2022-11-26T23:41:04.629Z,22.57
2022-11-26T23:43:35.941Z,21.33
2022-11-26T23:46:06.251Z,22.93
2022-11-26T23:48:35.115Z,20.50
2022-11-26T23:51:07.305Z,21.13
2022-11-26T23:53:37.325Z,21.97
2022-11-26T23:56:07.082Z,21.63
2022-11-26T23:58:36.636Z,23.27
